createdAt,value
2019-03-20T00:01:07.843Z,77.70
2019-03-20T00:03:38.144Z,77.77
2019-03-20T00:06:08.557Z,76.65
2019-03-20T00:08:39.002Z,76.72
2019-03-20T00:11:09.413Z,77.99
2019-03-20T00:13:39.863Z,78.33
2019-03-20T00:16:10.257Z,78.56
2019-03-20T00:18:40.697Z,79.26
2019-03-20T00:21:11.178Z,80.48
2019-03-20T00:23:41.595Z,79.76
2019-03-20T00:26:12.013Z,80.40
2019-03-20T00:28:42.409Z,81.04
2019-03-20T00:31:14.914Z,81.85
2019-03-20T00:33:45.421Z,82.31
2019-03-20T00:36:15.977Z,82.25
2019-03-20T00:38:46.375Z,82.41
2019-03-20T00:41:16.854Z,83.08
2019-03-20T00:43:47.262Z,83.61
2019-03-20T00:46:17.656Z,84.07
2019-03-20T00:48:49.085Z,84.38
2019-03-20T00:51:19.515Z,84.27
2019-03-20T00:53:50.064Z,84.45
2019-03-20T00:56:20.483Z,84.42
2019-03-20T00:58:50.954Z,84.58
2019-03-20T01:01:21.384Z,85.41
2019-03-20T01:03:51.945Z,85.55
2019-03-20T01:06:22.370Z,86.17
2019-03-20T01:08:52.815Z,86.36
2019-03-20T01:11:23.215Z,86.48
2019-03-20T01:13:53.662Z,86.82
2019-03-20T01:16:24.443Z,86.91
2019-03-20T01:18:55.897Z,87.06
2019-03-20T01:21:26.278Z,87.25
2019-03-20T01:23:56.685Z,87.24
2019-03-20T01:26:27.108Z,86.38
2019-03-20T01:28:57.535Z,86.25
2019-03-20T01:31:27.926Z,86.01
2019-03-20T01:33:58.323Z,86.68
2019-03-20T01:36:28.780Z,87.46
2019-03-20T01:38:59.211Z,87.90
2019-03-20T01:41:37.555Z,88.31
2019-03-20T01:44:01.773Z,88.53
2019-03-20T01:46:32.228Z,87.42
2019-03-20T01:49:02.723Z,87.28
2019-03-20T01:51:33.230Z,87.21
2019-03-20T01:54:03.621Z,87.57
2019-03-20T01:56:34.096Z,88.31
2019-03-20T01:59:04.519Z,88.54
2019-03-20T02:01:35.064Z,88.62
2019-03-20T02:04:05.479Z,87.67
2019-03-20T02:06:36.056Z,87.84
2019-03-20T02:09:08.060Z,88.18
2019-03-20T02:11:38.530Z,88.65
2019-03-20T02:14:09.029Z,89.41
2019-03-20T02:16:39.579Z,89.62
2019-03-20T02:19:10.181Z,89.79
2019-03-20T02:21:40.612Z,90.28
2019-03-20T02:24:11.077Z,90.44
2019-03-20T02:26:41.568Z,90.50
2019-03-20T02:29:11.992Z,90.83
2019-03-20T02:31:42.439Z,91.02
2019-03-20T02:34:12.951Z,91.18
2019-03-20T02:36:43.415Z,91.09
2019-03-20T02:39:13.856Z,91.14
2019-03-20T02:41:44.275Z,91.13
2019-03-20T02:44:14.690Z,91.14
2019-03-20T02:46:45.112Z,91.27
2019-03-20T02:49:15.560Z,91.29
2019-03-20T02:51:45.975Z,91.39
2019-03-20T02:54:16.425Z,91.21
2019-03-20T02:56:46.836Z,91.56
2019-03-20T02:59:17.308Z,91.88
2019-03-20T03:01:47.774Z,91.80
2019-03-20T03:04:18.248Z,92.04
2019-03-20T03:06:48.680Z,92.35
2019-03-20T03:09:19.116Z,92.39
2019-03-20T03:11:49.618Z,92.45
2019-03-20T03:14:20.070Z,92.51
2019-03-20T03:16:50.465Z,92.71
2019-03-20T03:19:37.923Z,92.63
2019-03-20T03:22:09.890Z,92.83
2019-03-20T03:24:40.280Z,92.98
2019-03-20T03:27:10.750Z,92.96
2019-03-20T03:29:41.202Z,93.00
2019-03-20T03:32:11.612Z,93.05
2019-03-20T03:34:42.027Z,93.13
2019-03-20T03:37:12.427Z,93.05
2019-03-20T03:39:42.855Z,93.18
2019-03-20T03:42:13.275Z,93.05
2019-03-20T03:44:43.712Z,93.07
2019-03-20T03:47:14.236Z,92.90
2019-03-20T03:49:44.715Z,92.54
2019-03-20T03:52:15.129Z,92.36
2019-03-20T03:54:45.551Z,92.17
2019-03-20T03:57:15.925Z,92.27
2019-03-20T03:59:46.394Z,92.48
2019-03-20T04:02:16.800Z,92.16
2019-03-20T04:04:47.245Z,92.18
2019-03-20T04:07:17.691Z,92.07
2019-03-20T04:09:48.188Z,91.95
2019-03-20T04:12:35.492Z,91.93
2019-03-20T04:15:12.817Z,91.90
2019-03-20T04:17:44.669Z,91.98
2019-03-20T04:20:22.472Z,92.04
2019-03-20T04:22:54.220Z,92.16
2019-03-20T04:25:24.744Z,92.23
2019-03-20T04:27:59.673Z,91.47
2019-03-20T04:30:30.078Z,91.22
2019-03-20T04:33:00.538Z,90.91
2019-03-20T04:35:31.096Z,90.93
2019-03-20T04:38:01.996Z,90.32
2019-03-20T04:40:32.511Z,90.14
2019-03-20T04:43:03.028Z,89.91
2019-03-20T04:45:33.616Z,89.92
2019-03-20T04:48:04.100Z,89.63
2019-03-20T04:50:34.554Z,88.52
2019-03-20T04:53:05.010Z,89.67
2019-03-20T04:55:35.405Z,89.74
2019-03-20T04:58:05.838Z,90.00
2019-03-20T05:00:36.440Z,89.49
2019-03-20T05:03:06.872Z,89.35
2019-03-20T05:05:37.303Z,89.32
2019-03-20T05:08:07.821Z,89.82
2019-03-20T05:10:38.590Z,89.94
2019-03-20T05:13:09.108Z,90.15
2019-03-20T05:15:39.590Z,90.25
2019-03-20T05:18:10.245Z,90.93
2019-03-20T05:20:40.760Z,91.01
2019-03-20T05:23:12.757Z,89.46
2019-03-20T05:25:43.179Z,88.74
2019-03-20T05:28:13.582Z,89.10
2019-03-20T05:30:44.085Z,89.71
2019-03-20T05:33:14.719Z,89.44
2019-03-20T05:35:46.652Z,90.27
2019-03-20T05:38:17.137Z,89.56
2019-03-20T05:40:47.587Z,89.16
2019-03-20T05:43:18.371Z,88.26
2019-03-20T05:45:48.885Z,88.19
2019-03-20T05:48:19.333Z,89.44
2019-03-20T05:50:51.393Z,89.14
2019-03-20T05:53:23.312Z,89.11
2019-03-20T05:55:55.309Z,87.92
2019-03-20T05:58:25.761Z,87.35
2019-03-20T06:00:56.705Z,85.89
2019-03-20T06:03:27.369Z,85.03
2019-03-20T06:05:57.810Z,85.30
2019-03-20T06:08:28.359Z,85.71
2019-03-20T06:11:04.949Z,85.78
2019-03-20T06:13:35.473Z,85.23
2019-03-20T06:16:05.939Z,84.52
2019-03-20T06:18:36.583Z,84.65
2019-03-20T06:21:07.148Z,85.08
2019-03-20T06:23:38.019Z,84.95
2019-03-20T06:26:08.858Z,83.76
2019-03-20T06:28:40.871Z,84.66
2019-03-20T06:31:11.672Z,82.70
2019-03-20T06:33:43.722Z,82.55
2019-03-20T06:36:14.246Z,84.80
2019-03-20T06:38:44.892Z,84.43
2019-03-20T06:41:15.333Z,83.82
2019-03-20T06:43:45.737Z,85.21
2019-03-20T06:46:16.145Z,84.98
2019-03-20T06:48:46.601Z,83.87
2019-03-20T06:51:17.144Z,82.43
2019-03-20T06:53:47.555Z,79.44
2019-03-20T06:56:17.982Z,80.69
2019-03-20T06:58:49.944Z,79.29
2019-03-20T07:01:23.588Z,81.44
2019-03-20T07:04:00.080Z,80.82
2019-03-20T07:06:39.489Z,82.80
2019-03-20T07:09:21.627Z,80.59
2019-03-20T07:11:52.072Z,81.75
2019-03-20T07:14:23.480Z,84.21
2019-03-20T07:16:53.945Z,81.80
2019-03-20T07:19:24.438Z,80.58
2019-03-20T07:21:54.854Z,79.24
2019-03-20T07:24:25.296Z,75.81
2019-03-20T07:26:55.810Z,79.54
2019-03-20T07:29:26.225Z,76.38
2019-03-20T07:31:59.731Z,77.34
2019-03-20T07:34:30.257Z,75.51
2019-03-20T07:37:00.744Z,77.62
2019-03-20T07:39:31.340Z,77.44
2019-03-20T07:42:01.746Z,74.56
2019-03-20T07:44:32.253Z,75.64
2019-03-20T07:47:02.711Z,75.41
2019-03-20T07:49:33.221Z,70.67
2019-03-20T07:52:03.741Z,77.31
2019-03-20T07:54:34.206Z,82.46
2019-03-20T07:57:04.616Z,82.05
2019-03-20T07:59:35.071Z,79.44
2019-03-20T08:02:05.478Z,76.94
2019-03-20T08:04:35.943Z,74.66
2019-03-20T08:07:06.348Z,75.47
2019-03-20T08:09:36.909Z,78.78
2019-03-20T08:12:07.397Z,77.49
2019-03-20T08:14:37.879Z,77.29
2019-03-20T08:17:09.805Z,78.82
2019-03-20T08:19:41.808Z,80.83
2019-03-20T08:22:13.823Z,81.18
2019-03-20T08:24:44.228Z,81.43
2019-03-20T08:27:14.705Z,80.03
2019-03-20T08:29:45.192Z,79.35
2019-03-20T08:32:15.725Z,77.72
2019-03-20T08:34:46.137Z,77.09
2019-03-20T08:37:16.564Z,77.09
2019-03-20T08:39:47.090Z,77.48
2019-03-20T08:42:17.958Z,76.54
2019-03-20T08:44:48.442Z,75.30
2019-03-20T08:47:18.947Z,76.36
2019-03-20T08:49:49.491Z,77.65
2019-03-20T08:52:19.930Z,77.33
2019-03-20T08:54:50.425Z,76.79
2019-03-20T08:57:20.834Z,76.04
2019-03-20T08:59:51.270Z,75.87
2019-03-20T09:02:22.153Z,75.12
2019-03-20T09:04:52.541Z,73.65
2019-03-20T09:07:22.949Z,73.26
2019-03-20T09:09:53.398Z,72.48
2019-03-20T09:12:23.804Z,72.74
2019-03-20T09:14:54.270Z,73.16
2019-03-20T09:17:24.699Z,73.32
2019-03-20T09:19:55.488Z,73.63
2019-03-20T09:22:25.991Z,72.43
2019-03-20T09:24:56.385Z,70.92
2019-03-20T09:27:26.790Z,71.96
2019-03-20T09:29:57.227Z,70.87
2019-03-20T09:32:27.667Z,71.36
2019-03-20T09:34:58.137Z,70.88
2019-03-20T09:37:28.551Z,70.61
2019-03-20T09:39:58.922Z,69.73
2019-03-20T09:42:29.343Z,69.97
2019-03-20T09:44:59.779Z,68.93
2019-03-20T09:47:30.243Z,69.84
2019-03-20T09:50:01.228Z,69.25
2019-03-20T09:52:31.620Z,68.69
2019-03-20T09:55:02.008Z,66.83
2019-03-20T09:57:32.491Z,67.05
2019-03-20T10:00:02.897Z,66.15
2019-03-20T10:02:33.378Z,65.86
2019-03-20T10:05:04.920Z,66.05
2019-03-20T10:07:35.315Z,66.17
2019-03-20T10:10:08.930Z,64.54
2019-03-20T10:12:39.377Z,64.03
2019-03-20T10:15:12.670Z,61.63
2019-03-20T10:17:43.090Z,61.95
2019-03-20T10:20:18.080Z,62.76
2019-03-20T10:22:48.504Z,63.78
2019-03-20T10:25:18.951Z,64.60
2019-03-20T10:27:51.717Z,63.96
2019-03-20T10:30:23.860Z,63.17
2019-03-20T10:32:54.259Z,63.38
2019-03-20T10:35:24.661Z,63.55
2019-03-20T10:37:55.092Z,62.39
2019-03-20T10:40:27.704Z,62.92
2019-03-20T10:43:00.330Z,62.33
2019-03-20T10:45:33.034Z,62.32
2019-03-20T10:48:04.971Z,61.65
2019-03-20T10:50:35.404Z,62.02
2019-03-20T10:53:05.852Z,61.37
2019-03-20T10:55:36.286Z,61.46
2019-03-20T10:58:06.727Z,61.59
2019-03-20T11:00:37.319Z,60.23
2019-03-20T11:03:07.735Z,59.81
2019-03-20T11:05:38.358Z,59.66
2019-03-20T11:08:10.090Z,59.14
2019-03-20T11:10:40.521Z,58.86
2019-03-20T11:13:11.150Z,59.00
2019-03-20T11:15:41.594Z,57.93
2019-03-20T11:18:12.025Z,58.60
2019-03-20T11:20:42.466Z,57.47
2019-03-20T11:23:14.470Z,56.52
2019-03-20T11:25:44.845Z,56.63
2019-03-20T11:28:15.248Z,56.57
2019-03-20T11:30:45.681Z,56.44
2019-03-20T11:33:16.157Z,57.47
2019-03-20T11:35:47.118Z,56.39
2019-03-20T11:38:17.552Z,55.88
2019-03-20T11:40:47.980Z,56.19
2019-03-20T11:43:18.453Z,55.69
2019-03-20T11:45:48.849Z,56.34
2019-03-20T11:48:19.279Z,55.63
2019-03-20T11:50:49.767Z,54.74
2019-03-20T11:53:20.298Z,55.25
2019-03-20T11:55:50.772Z,55.13
2019-03-20T11:58:21.262Z,55.17
2019-03-20T12:00:51.681Z,54.80
2019-03-20T12:03:22.291Z,54.73
2019-03-20T12:05:52.840Z,54.16
2019-03-20T12:08:23.352Z,54.15
2019-03-20T12:10:53.781Z,53.96
2019-03-20T12:13:24.300Z,54.84
2019-03-20T12:15:55.278Z,55.17
2019-03-20T12:18:27.022Z,53.69
2019-03-20T12:20:58.485Z,52.52
2019-03-20T12:23:28.990Z,52.31
2019-03-20T12:25:59.449Z,52.05
2019-03-20T12:28:32.378Z,52.27
2019-03-20T12:31:02.804Z,51.32
2019-03-20T12:33:34.316Z,50.78
2019-03-20T12:36:04.740Z,50.97
2019-03-20T12:38:35.316Z,50.86
2019-03-20T12:41:05.750Z,51.44
2019-03-20T12:43:36.184Z,51.85
2019-03-20T12:46:09.572Z,51.68
2019-03-20T12:48:39.957Z,51.93
2019-03-20T12:51:10.488Z,51.52
2019-03-20T12:53:40.909Z,52.32
2019-03-20T12:56:11.387Z,52.27
2019-03-20T12:58:41.829Z,52.42
2019-03-20T13:01:12.673Z,53.19
2019-03-20T13:04:01.281Z,52.61
2019-03-20T13:06:36.074Z,52.59
2019-03-20T13:09:07.782Z,52.52
2019-03-20T13:11:38.229Z,52.82
2019-03-20T13:14:11.609Z,52.45
2019-03-20T13:16:43.539Z,52.64
2019-03-20T13:19:15.491Z,52.74
2019-03-20T13:21:47.609Z,53.37
2019-03-20T13:24:18.079Z,53.08
2019-03-20T13:26:48.544Z,53.05
2019-03-20T13:29:20.053Z,52.21
2019-03-20T13:31:50.441Z,52.50
2019-03-20T13:34:22.508Z,52.73
2019-03-20T13:36:52.977Z,52.44
2019-03-20T13:39:23.435Z,51.90
2019-03-20T13:41:53.886Z,51.43
2019-03-20T13:44:24.295Z,50.75
2019-03-20T13:46:56.560Z,50.59
2019-03-20T13:49:27.912Z,51.01
2019-03-20T13:52:10.742Z,51.51
2019-03-20T13:54:33.714Z,50.64
2019-03-20T13:57:04.129Z,50.53
2019-03-20T13:59:34.653Z,50.26
2019-03-20T14:02:05.028Z,50.04
2019-03-20T14:04:35.469Z,50.15
2019-03-20T14:07:06.624Z,50.69
2019-03-20T14:09:37.076Z,49.58
2019-03-20T14:12:07.506Z,48.87
2019-03-20T14:14:38.015Z,48.77
2019-03-20T14:17:08.434Z,48.82
2019-03-20T14:19:38.932Z,48.02
2019-03-20T14:22:10.701Z,48.58
2019-03-20T14:24:41.120Z,47.66
2019-03-20T14:27:11.584Z,47.92
2019-03-20T14:29:42.010Z,46.97
2019-03-20T14:32:15.425Z,46.85
2019-03-20T14:34:46.000Z,47.22
2019-03-20T14:37:16.435Z,47.02
2019-03-20T14:39:46.979Z,47.64
2019-03-20T14:42:18.000Z,47.82
2019-03-20T14:44:51.787Z,48.10
2019-03-20T14:47:23.982Z,48.10
2019-03-20T14:49:55.330Z,47.93
2019-03-20T14:52:25.741Z,48.11
2019-03-20T14:54:57.707Z,48.67
2019-03-20T14:57:28.165Z,48.81
2019-03-20T15:00:03.066Z,48.47
2019-03-20T15:02:35.044Z,48.77
2019-03-20T15:05:12.339Z,48.83
2019-03-20T15:07:42.862Z,49.04
2019-03-20T15:10:24.252Z,49.41
2019-03-20T15:12:55.258Z,49.20
2019-03-20T15:15:44.015Z,49.60
2019-03-20T15:18:14.610Z,49.49
2019-03-20T15:20:45.113Z,50.10
2019-03-20T15:23:17.316Z,49.73
2019-03-20T15:25:47.853Z,49.45
2019-03-20T15:28:18.425Z,51.88
2019-03-20T15:30:49.408Z,54.94
2019-03-20T15:33:21.436Z,56.34
2019-03-20T15:35:54.115Z,58.81
2019-03-20T15:38:27.662Z,60.22
2019-03-20T15:41:01.412Z,61.19
2019-03-20T15:43:31.867Z,62.02
2019-03-20T15:46:05.454Z,62.38
2019-03-20T15:48:35.898Z,62.93
2019-03-20T15:51:07.762Z,63.61
2019-03-20T15:53:41.259Z,64.76
2019-03-20T15:56:13.254Z,65.74
2019-03-20T15:58:44.917Z,67.11
2019-03-20T16:01:20.800Z,68.24
2019-03-20T16:03:53.995Z,68.92
2019-03-20T16:06:27.474Z,69.38
2019-03-20T16:09:02.239Z,69.92
2019-03-20T16:11:35.359Z,70.24
2019-03-20T16:14:07.944Z,70.50
2019-03-20T16:16:39.581Z,71.00
2019-03-20T16:19:14.394Z,71.00
2019-03-20T16:21:46.562Z,71.03
2019-03-20T16:24:20.604Z,71.06
2019-03-20T16:26:51.142Z,71.02
2019-03-20T16:29:27.430Z,71.19
2019-03-20T16:31:59.638Z,71.08
2019-03-20T16:34:32.167Z,71.24
2019-03-20T16:37:02.886Z,71.19
2019-03-20T16:39:33.414Z,71.47
2019-03-20T16:42:09.428Z,71.90
2019-03-20T16:44:59.017Z,72.03
2019-03-20T16:47:30.785Z,72.52
2019-03-20T16:50:01.387Z,73.04
2019-03-20T16:52:40.421Z,73.47
2019-03-20T16:55:13.218Z,73.86
2019-03-20T16:57:43.677Z,73.93
2019-03-20T17:00:18.805Z,74.23
2019-03-20T17:02:54.993Z,74.64
2019-03-20T17:05:34.857Z,74.94
2019-03-20T17:08:06.129Z,75.22
2019-03-20T17:13:35.763Z,75.85
2019-03-20T17:16:06.247Z,76.04
2019-03-20T17:18:40.084Z,76.34
2019-03-20T17:21:10.647Z,76.62
2019-03-20T17:26:42.780Z,77.33
2019-03-20T17:29:15.870Z,77.58
2019-03-20T17:31:48.197Z,77.67
2019-03-20T17:34:21.294Z,77.88
2019-03-20T17:36:51.810Z,77.98
2019-03-20T17:39:25.378Z,78.00
2019-03-20T17:41:57.435Z,78.02
2019-03-20T17:47:19.310Z,77.94
2019-03-20T17:49:49.906Z,78.07
2019-03-20T17:52:21.495Z,78.23
2019-03-20T17:54:52.269Z,78.12
2019-03-20T17:57:24.334Z,78.28
2019-03-20T17:59:55.341Z,78.47
2019-03-20T18:02:28.858Z,78.46
2019-03-20T18:04:59.417Z,78.59
2019-03-20T18:07:31.422Z,78.70
2019-03-20T18:10:07.497Z,78.74
2019-03-20T18:12:56.836Z,78.67
2019-03-20T18:15:38.644Z,78.78
2019-03-20T18:18:12.265Z,79.37
2019-03-20T18:20:45.628Z,79.49
2019-03-20T18:23:25.996Z,79.63
2019-03-20T18:25:58.245Z,79.72
2019-03-20T18:31:21.655Z,79.95
2019-03-20T18:33:52.134Z,79.45
2019-03-20T18:36:27.973Z,79.52
2019-03-20T18:39:01.515Z,79.71
2019-03-20T18:41:32.068Z,80.03
2019-03-20T18:49:36.047Z,80.89
2019-03-20T18:52:11.939Z,81.20
2019-03-20T18:54:42.663Z,81.56
2019-03-20T18:57:27.687Z,81.83
2019-03-20T19:00:13.219Z,81.95
2019-03-20T19:02:46.316Z,82.29
2019-03-20T19:05:22.917Z,82.28
2019-03-20T19:07:57.579Z,82.10
2019-03-20T19:10:34.975Z,82.20
2019-03-20T19:13:05.697Z,82.24
2019-03-20T19:15:40.253Z,82.32
2019-03-20T19:18:14.595Z,82.53
2019-03-20T19:20:48.599Z,82.43
2019-03-20T19:23:31.186Z,82.45
2019-03-20T19:26:05.036Z,82.70
2019-03-20T19:28:36.820Z,82.88
2019-03-20T19:31:07.335Z,82.43
2019-03-20T19:33:38.901Z,81.70
2019-03-20T19:36:14.797Z,81.68
2019-03-20T19:38:47.232Z,81.62
2019-03-20T19:41:19.367Z,81.95
2019-03-20T19:44:04.918Z,81.98
2019-03-20T19:46:33.593Z,81.93
2019-03-20T19:49:07.272Z,81.79
2019-03-20T19:54:41.135Z,81.97
2019-03-20T19:57:15.481Z,82.19
2019-03-20T20:03:24.090Z,81.93
2019-03-20T20:05:58.055Z,81.71
2019-03-20T20:08:31.721Z,81.70
2019-03-20T20:11:06.996Z,81.56
2019-03-20T20:13:40.840Z,81.52
2019-03-20T20:16:11.384Z,81.71
2019-03-20T20:18:42.006Z,81.65
2019-03-20T20:21:16.489Z,81.38
2019-03-20T20:23:55.558Z,81.17
2019-03-20T20:26:36.250Z,81.24
2019-03-20T20:29:13.242Z,81.25
2019-03-20T20:31:47.342Z,81.34
2019-03-20T20:34:19.694Z,81.08
2019-03-20T20:36:50.296Z,81.15
2019-03-20T20:39:22.116Z,80.88
2019-03-20T20:41:55.421Z,80.73
2019-03-20T20:44:28.138Z,80.78
2019-03-20T20:46:58.666Z,80.66
2019-03-20T20:49:32.539Z,80.54
2019-03-20T20:52:05.516Z,80.63
2019-03-20T20:54:40.386Z,80.61
2019-03-20T20:57:16.956Z,80.53
2019-03-20T20:59:47.438Z,80.55
2019-03-20T21:02:17.918Z,80.61
2019-03-20T21:04:49.404Z,80.59
2019-03-20T21:07:19.825Z,80.52
2019-03-20T21:09:50.296Z,80.69
2019-03-20T21:12:20.804Z,80.67
2019-03-20T21:14:51.344Z,80.91
2019-03-20T21:17:24.939Z,80.90
2019-03-20T21:20:00.106Z,80.95
2019-03-20T21:22:33.587Z,80.89
2019-03-20T21:25:04.414Z,80.91
2019-03-20T21:28:11.763Z,81.05
2019-03-20T21:30:57.295Z,80.81
2019-03-20T21:33:47.198Z,80.89
2019-03-20T21:39:43.971Z,81.12
2019-03-20T21:42:41.493Z,81.27
2019-03-20T21:45:26.830Z,81.31
2019-03-20T21:47:57.343Z,81.33
2019-03-20T21:50:39.692Z,81.53
2019-03-20T21:53:13.236Z,81.44
2019-03-20T21:56:18.448Z,81.58
2019-03-20T21:59:08.460Z,81.44
2019-03-20T22:01:59.982Z,81.85
2019-03-20T22:04:30.473Z,81.92
2019-03-20T22:07:10.261Z,82.14
2019-03-20T22:09:52.336Z,82.28
2019-03-20T22:12:34.740Z,82.29
2019-03-20T22:15:08.355Z,82.34
2019-03-20T22:17:59.546Z,82.34
2019-03-20T22:20:39.062Z,82.30
2019-03-20T22:23:34.642Z,82.71
2019-03-20T22:26:17.047Z,82.70
2019-03-20T22:28:59.309Z,83.01
2019-03-20T22:31:31.858Z,83.23
2019-03-20T22:34:24.649Z,83.63
2019-03-20T22:36:55.115Z,83.75
2019-03-20T22:39:43.748Z,83.75
2019-03-20T22:42:20.241Z,83.92
2019-03-20T22:45:13.431Z,83.99
2019-03-20T22:48:03.528Z,83.97
2019-03-20T22:50:37.116Z,84.27
2019-03-20T22:53:27.002Z,84.37
2019-03-20T22:56:18.332Z,84.28
2019-03-20T22:58:48.762Z,84.50
2019-03-20T23:01:25.204Z,84.64
2019-03-20T23:04:04.414Z,84.73
2019-03-20T23:06:36.467Z,84.65
2019-03-20T23:09:08.341Z,84.89
2019-03-20T23:11:38.813Z,84.86
2019-03-20T23:14:09.428Z,85.00
2019-03-20T23:16:39.886Z,85.06
2019-03-20T23:19:10.361Z,85.35
2019-03-20T23:21:40.803Z,85.18
2019-03-20T23:24:20.406Z,85.25
2019-03-20T23:26:48.348Z,85.44
2019-03-20T23:29:18.807Z,85.25
2019-03-20T23:31:50.820Z,85.24
2019-03-20T23:34:21.263Z,85.32
2019-03-20T23:36:51.738Z,85.39
2019-03-20T23:39:22.222Z,85.41
2019-03-20T23:41:52.640Z,85.65
2019-03-20T23:44:25.049Z,85.54
2019-03-20T23:46:55.614Z,85.61
2019-03-20T23:49:28.170Z,85.57
2019-03-20T23:52:00.285Z,85.52
2019-03-20T23:54:38.191Z,85.55
2019-03-20T23:57:12.238Z,85.47
2019-03-20T23:59:42.628Z,85.61
